CUA weather

Ciudad ConstituciĆ³n Airport
Ciudad ConstituciĆ³n, Baja California Sur, Mexico

Public forecast

Using degrees Celsius for public forecast. Weather courtesy of forecast.io.

METAR (pilot weather report)

Closest report is Loreto International Airport, 58.0 nm (107.4 km) NNE. Retrieved 2019/06/19 14:46 UTC (59 minutes ago):

MMLT 191446Z 03008KT 10SM BKN240 29/24 A2988 RMK SLP118 8/008

TAF (pilot weather forecast)

Forecast is more than 6 hours old.

Closest forecast is Loreto International Airport, 58.0 nm (107.4 km) NNE. Retrieved 2019/06/19 06:09 UTC (10 hours ago):

TAF MMLT 190502Z 1906/2006 00000KT P6SM SCT240 FM191800 04010KT P6SM SCT250 BECMG 2002/2004 00000KT